Time;durP1;ratioP1;P1;durP2;ratioP2;P2;SDS_P1;SDS_P2;PMS_P1;PMS_P2;Temp;Humidity;BMP_temperature;BMP_pressure;BME280_temperature;BME280_humidity;BME280_pressure;Samples;Min_cycle;Max_cycle;Signal;HPM_P1;HPM_P2
2022/03/16 00:00:08;;;;;;;27.85;3.92;;;33.20;17.60;;;;;;5013379;28;20076;-64
2022/03/16 00:02:35;;;;;;;30.10;3.25;;;33.10;17.50;;;;;;4981024;28;20089;-64
2022/03/16 00:05:02;;;;;;;32.75;3.50;;;33.10;18.20;;;;;;4978929;28;20460;-64
2022/03/16 00:07:29;;;;;;;24.60;3.55;;;33.10;17.30;;;;;;4997584;28;20104;-64
2022/03/16 00:09:55;;;;;;;20.10;3.05;;;33.00;18.30;;;;;;4997449;28;20088;-65
2022/03/16 00:12:21;;;;;;;24.42;2.97;;;32.80;17.20;;;;;;5031419;28;20460;-63
2022/03/16 00:14:48;;;;;;;28.27;3.20;;;32.80;18.40;;;;;;4994745;28;20502;-64
2022/03/16 00:17:16;;;;;;;27.10;3.05;;;32.70;18.00;;;;;;4996276;28;20511;-63
2022/03/16 00:19:43;;;;;;;27.33;3.47;;;32.50;17.40;;;;;;4997442;28;20087;-65
2022/03/16 00:22:10;;;;;;;16.25;2.85;;;32.60;18.90;;;;;;4996445;28;20157;-63
2022/03/16 00:24:37;;;;;;;31.30;3.10;;;32.50;18.20;;;;;;5016408;28;20097;-63
2022/03/16 00:27:04;;;;;;;22.65;3.38;;;32.50;17.00;;;;;;5013137;28;20580;-64
2022/03/16 00:29:31;;;;;;;27.92;3.65;;;32.40;16.90;;;;;;4996552;28;20524;-62
2022/03/16 00:31:59;;;;;;;30.38;4.07;;;32.20;16.80;;;;;;4998951;28;20139;-64
2022/03/16 00:34:26;;;;;;;16.33;3.30;;;32.20;18.60;;;;;;4996040;28;20092;-65
2022/03/16 00:36:52;;;;;;;23.52;3.90;;;32.10;18.20;;;;;;4980939;28;20116;-58
2022/03/16 00:39:19;;;;;;;21.85;3.63;;;31.90;17.30;;;;;;4997940;28;20533;-64
2022/03/16 00:41:45;;;;;;;37.33;4.47;;;32.00;17.90;;;;;;4996335;28;20081;-64
2022/03/16 00:44:11;;;;;;;29.90;3.78;;;31.80;17.90;;;;;;4996326;28;20104;-64
2022/03/16 00:46:38;;;;;;;31.17;4.05;;;31.80;18.20;;;;;;4994477;28;20541;-64
2022/03/16 00:49:05;;;;;;;19.15;2.80;;;31.70;17.80;;;;;;4993455;28;20081;-66
2022/03/16 00:51:31;;;;;;;14.88;3.83;;;31.70;18.10;;;;;;5012379;28;20084;-63
2022/03/16 00:53:58;;;;;;;32.33;4.03;;;31.60;17.30;;;;;;4995580;28;20077;-63
2022/03/16 00:56:24;;;;;;;25.45;3.80;;;31.40;17.30;;;;;;5013929;28;20533;-63
2022/03/16 00:58:51;;;;;;;28.70;3.33;;;31.40;17.50;;;;;;5034762;28;20077;-61
2022/03/16 01:01:17;;;;;;;27.77;5.32;;;31.30;18.20;;;;;;4996741;28;20118;-62
2022/03/16 01:03:44;;;;;;;32.80;3.80;;;31.20;17.90;;;;;;4996875;28;20078;-61
2022/03/16 01:06:15;;;;;;;35.53;4.60;;;31.10;18.00;;;;;;4995884;28;20083;-62
2022/03/16 01:08:43;;;;;;;24.58;3.55;;;31.00;17.50;;;;;;4996091;28;20583;-63
2022/03/16 01:11:10;;;;;;;27.45;4.05;;;30.90;17.50;;;;;;4996233;28;21632;-63
2022/03/16 01:13:39;;;;;;;36.67;3.17;;;30.80;17.50;;;;;;4980802;28;20073;-65
2022/03/16 01:16:07;;;;;;;30.50;3.60;;;30.60;18.10;;;;;;4982254;28;20072;-64
2022/03/16 01:18:34;;;;;;;34.08;3.80;;;30.50;18.10;;;;;;5014848;28;20077;-63
2022/03/16 01:21:00;;;;;;;39.45;5.07;;;30.50;18.80;;;;;;4978825;28;20093;-63
2022/03/16 01:23:27;;;;;;;27.85;3.97;;;30.30;19.70;;;;;;5013890;28;20124;-59
2022/03/16 01:25:53;;;;;;;40.97;4.85;;;30.10;19.30;;;;;;5014506;28;20082;-65
2022/03/16 01:28:19;;;;;;;44.20;4.60;;;29.90;19.00;;;;;;4997957;28;20075;-62
2022/03/16 01:30:46;;;;;;;31.45;4.47;;;29.60;18.80;;;;;;4979902;28;20097;-68
2022/03/16 01:33:12;;;;;;;35.45;4.97;;;29.40;19.20;;;;;;5015731;28;20136;-68
2022/03/16 01:35:39;;;;;;;34.88;4.28;;;29.20;19.50;;;;;;4996662;28;20105;-67
2022/03/16 01:38:05;;;;;;;48.22;4.68;;;29.10;19.60;;;;;;4982953;28;20077;-66
2022/03/16 01:40:31;;;;;;;32.97;4.55;;;29.00;19.70;;;;;;5012160;28;20073;-67
2022/03/16 01:42:58;;;;;;;40.42;7.88;;;28.80;19.90;;;;;;5014193;28;20100;-71
2022/03/16 01:45:25;;;;;;;47.53;5.88;;;28.70;20.10;;;;;;4995731;28;20070;-71
2022/03/16 01:47:52;;;;;;;36.50;4.55;;;28.60;20.60;;;;;;4996932;28;20530;-71
2022/03/16 01:50:18;;;;;;;54.05;6.05;;;28.40;21.60;;;;;;4994001;28;20553;-72
2022/03/16 01:52:45;;;;;;;50.25;5.68;;;28.30;21.60;;;;;;5011245;28;20070;-67
2022/03/16 01:55:11;;;;;;;63.78;7.70;;;28.20;21.50;;;;;;4996422;28;20449;-68
2022/03/16 01:57:40;;;;;;;66.00;7.05;;;28.10;21.00;;;;;;4995630;28;20081;-70
2022/03/16 02:00:08;;;;;;;67.65;7.70;;;28.00;21.10;;;;;;4995620;28;20626;-68
2022/03/16 02:02:34;;;;;;;61.63;7.53;;;27.90;21.30;;;;;;4995836;28;20096;-62
2022/03/16 02:05:01;;;;;;;67.78;8.25;;;27.80;21.40;;;;;;4996270;28;20213;-63
2022/03/16 02:07:27;;;;;;;64.60;8.25;;;27.80;21.50;;;;;;5030700;28;20092;-62
2022/03/16 02:09:57;;;;;;;48.78;7.55;;;27.70;21.80;;;;;;4995968;28;20081;-62
2022/03/16 02:12:24;;;;;;;51.15;9.65;;;27.60;22.00;;;;;;4996591;28;20104;-64
2022/03/16 02:14:50;;;;;;;56.92;8.65;;;27.50;22.20;;;;;;4996521;28;20069;-63
2022/03/16 02:17:17;;;;;;;71.40;9.15;;;27.50;22.30;;;;;;5014969;28;20528;-64
2022/03/16 02:19:43;;;;;;;46.17;9.32;;;27.40;22.60;;;;;;4996978;28;20079;-63
2022/03/16 02:22:14;;;;;;;49.88;8.90;;;27.30;22.50;;;;;;5014289;28;20111;-66
2022/03/16 02:24:40;;;;;;;64.00;9.38;;;27.20;22.90;;;;;;4994843;28;20148;-65
2022/03/16 02:27:07;;;;;;;53.67;9.35;;;27.10;23.00;;;;;;4978487;28;20151;-68
2022/03/16 02:29:34;;;;;;;58.95;9.73;;;27.00;23.10;;;;;;4996624;28;20080;-63
2022/03/16 02:32:00;;;;;;;59.63;9.73;;;27.00;23.10;;;;;;5014316;28;20089;-63
2022/03/16 02:34:27;;;;;;;58.10;10.27;;;26.90;23.30;;;;;;4997011;28;20190;-65
2022/03/16 02:36:53;;;;;;;74.75;9.43;;;26.80;23.40;;;;;;4995201;28;20069;-63
2022/03/16 02:39:20;;;;;;;58.60;9.68;;;26.70;23.60;;;;;;5014342;28;20153;-65
2022/03/16 02:41:47;;;;;;;59.55;10.20;;;26.70;23.70;;;;;;5029058;28;20125;-64
2022/03/16 02:44:14;;;;;;;52.03;8.55;;;26.60;23.90;;;;;;4980630;28;20168;-63
2022/03/16 02:46:40;;;;;;;59.80;8.23;;;26.50;23.80;;;;;;5016177;28;20078;-63
2022/03/16 02:49:07;;;;;;;67.57;8.25;;;26.40;23.80;;;;;;4994127;28;20495;-60
2022/03/16 02:51:33;;;;;;;49.60;7.43;;;26.30;24.10;;;;;;4993005;28;20462;-61
2022/03/16 02:54:00;;;;;;;62.38;9.05;;;26.30;24.30;;;;;;4994795;28;20070;-61
2022/03/16 02:56:27;;;;;;;49.80;9.10;;;26.20;24.30;;;;;;5027806;28;20071;-62
2022/03/16 02:58:54;;;;;;;54.70;9.77;;;26.10;24.10;;;;;;4994718;28;20101;-62
2022/03/16 03:01:21;;;;;;;71.25;8.55;;;26.00;24.20;;;;;;4994341;28;20108;-62
2022/03/16 03:03:47;;;;;;;56.58;9.25;;;25.90;24.70;;;;;;4995467;28;20529;-61
2022/03/16 03:06:13;;;;;;;42.05;7.53;;;25.80;25.40;;;;;;4995040;28;20106;-60
2022/03/16 03:08:40;;;;;;;67.78;8.57;;;25.70;25.60;;;;;;4994292;28;20074;-62
2022/03/16 03:11:06;;;;;;;60.53;8.45;;;25.60;25.60;;;;;;5027985;28;20123;-66
2022/03/16 03:13:35;;;;;;;59.97;14.45;;;25.50;25.50;;;;;;4994063;28;20153;-62
2022/03/16 03:16:01;;;;;;;75.57;18.00;;;25.40;25.50;;;;;;5011902;28;20070;-63
2022/03/16 03:18:27;;;;;;;72.63;11.52;;;25.30;25.60;;;;;;4994922;28;20158;-64
2022/03/16 03:20:54;;;;;;;68.80;9.45;;;25.30;25.30;;;;;;4994567;28;20079;-62
2022/03/16 03:23:20;;;;;;;64.93;8.90;;;25.20;25.60;;;;;;4991847;28;20177;-65
2022/03/16 03:25:46;;;;;;;70.15;9.70;;;25.20;25.40;;;;;;5011946;28;20074;-63
2022/03/16 03:28:14;;;;;;;77.45;9.98;;;25.10;25.20;;;;;;4992835;28;20087;-62
2022/03/16 03:30:40;;;;;;;103.60;16.63;;;25.10;25.20;;;;;;5026851;28;20090;-62
2022/03/16 03:33:07;;;;;;;116.28;33.17;;;25.00;25.20;;;;;;5011112;28;20074;-63
2022/03/16 03:35:33;;;;;;;186.40;60.83;;;25.00;25.50;;;;;;4993055;28;20597;-63
2022/03/16 03:37:59;;;;;;;123.28;37.85;;;24.90;26.30;;;;;;5011113;28;20105;-61
2022/03/16 03:40:26;;;;;;;140.95;36.90;;;24.80;26.70;;;;;;5026335;28;20075;-64
2022/03/16 03:42:52;;;;;;;106.30;21.55;;;24.70;26.50;;;;;;4979114;28;20450;-62
2022/03/16 03:45:19;;;;;;;147.02;38.58;;;24.60;26.50;;;;;;5028084;28;20089;-64
2022/03/16 03:47:45;;;;;;;125.90;39.38;;;24.60;26.90;;;;;;4978681;28;20074;-61
2022/03/16 03:50:12;;;;;;;126.15;38.10;;;24.50;27.40;;;;;;4962041;28;20086;-62
2022/03/16 03:52:38;;;;;;;124.50;36.60;;;24.40;26.90;;;;;;4991629;28;20082;-62
2022/03/16 03:55:05;;;;;;;109.75;31.30;;;24.40;27.30;;;;;;4993944;28;20161;-63
2022/03/16 03:57:32;;;;;;;118.13;29.50;;;24.30;27.50;;;;;;4993247;28;20079;-63
2022/03/16 03:59:58;;;;;;;86.53;19.30;;;24.20;27.80;;;;;;4992051;28;20501;-64
2022/03/16 04:02:24;;;;;;;168.00;37.28;;;24.10;27.60;;;;;;5028017;28;20086;-64
2022/03/16 04:04:51;;;;;;;95.55;23.63;;;24.10;28.00;;;;;;5028596;28;20078;-63
2022/03/16 04:07:17;;;;;;;89.95;23.02;;;24.10;27.60;;;;;;4994841;28;20098;-63
2022/03/16 04:09:43;;;;;;;85.28;21.80;;;24.00;28.10;;;;;;5013713;28;20170;-65
2022/03/16 04:12:10;;;;;;;136.82;21.63;;;23.90;28.00;;;;;;4997280;28;20113;-65
2022/03/16 04:14:36;;;;;;;98.13;19.25;;;23.80;28.30;;;;;;4994971;28;20073;-65
2022/03/16 04:17:03;;;;;;;97.72;18.88;;;23.80;28.50;;;;;;4994090;28;20095;-63
2022/03/16 04:19:29;;;;;;;124.57;19.13;;;23.80;29.20;;;;;;4995703;28;20074;-63
2022/03/16 04:21:56;;;;;;;101.03;15.27;;;23.70;29.50;;;;;;5012395;28;20081;-62
2022/03/16 04:24:22;;;;;;;90.40;15.98;;;23.60;29.30;;;;;;4999166;28;20082;-63
2022/03/16 04:26:49;;;;;;;83.13;15.50;;;23.60;29.10;;;;;;4996634;28;20075;-63
2022/03/16 04:29:15;;;;;;;88.97;15.50;;;23.50;28.30;;;;;;5027452;28;20121;-63
2022/03/16 04:31:41;;;;;;;76.20;15.88;;;23.50;28.40;;;;;;4997279;28;20149;-63
2022/03/16 04:34:08;;;;;;;84.15;16.05;;;23.40;28.00;;;;;;4997673;28;20070;-64
2022/03/16 04:36:34;;;;;;;87.22;14.88;;;23.40;28.00;;;;;;4980899;28;20090;-62
2022/03/16 04:39:01;;;;;;;79.82;14.18;;;23.40;28.60;;;;;;4978069;28;20514;-64
2022/03/16 04:41:27;;;;;;;67.30;13.40;;;23.40;28.60;;;;;;4998793;28;20170;-63
2022/03/16 04:43:54;;;;;;;89.88;14.45;;;23.30;28.90;;;;;;4994269;28;20075;-66
2022/03/16 04:46:20;;;;;;;88.45;14.35;;;23.20;29.10;;;;;;4997226;28;20465;-62
2022/03/16 04:48:47;;;;;;;73.18;14.20;;;23.10;29.30;;;;;;5016803;28;20572;-62
2022/03/16 04:51:13;;;;;;;70.00;14.32;;;23.10;29.60;;;;;;4994418;28;20524;-64
2022/03/16 04:53:39;;;;;;;73.57;14.00;;;23.10;29.60;;;;;;4994566;28;20082;-62
2022/03/16 04:56:06;;;;;;;68.13;13.30;;;23.10;29.30;;;;;;4980076;28;20067;-64
2022/03/16 04:58:33;;;;;;;71.95;12.95;;;23.00;29.50;;;;;;5011539;28;20556;-63
2022/03/16 05:00:59;;;;;;;91.93;14.23;;;22.90;29.60;;;;;;4994911;28;20094;-62
2022/03/16 05:03:26;;;;;;;73.35;14.20;;;22.90;29.90;;;;;;4995006;28;20158;-62
2022/03/16 05:05:52;;;;;;;82.90;15.13;;;22.90;30.00;;;;;;4995884;28;20079;-63
2022/03/16 05:08:18;;;;;;;70.75;13.55;;;22.80;29.90;;;;;;4997103;28;20081;-65
2022/03/16 05:10:45;;;;;;;68.32;14.52;;;22.80;30.20;;;;;;5029070;28;20480;-62
2022/03/16 05:13:11;;;;;;;71.75;13.77;;;22.70;30.20;;;;;;4997575;28;20545;-63
2022/03/16 05:15:38;;;;;;;73.03;13.27;;;22.70;30.40;;;;;;5010985;28;20075;-63
2022/03/16 05:18:04;;;;;;;101.22;14.00;;;22.70;30.70;;;;;;5013791;28;20079;-63
2022/03/16 05:20:31;;;;;;;60.60;13.27;;;22.60;30.30;;;;;;5028649;28;20097;-61
2022/03/16 05:22:57;;;;;;;74.18;14.90;;;22.60;30.40;;;;;;5013120;28;20082;-59
2022/03/16 05:25:30;;;;;;;65.13;14.13;;;22.50;30.10;;;;;;4980620;28;20079;-62
2022/03/16 05:27:57;;;;;;;62.33;13.27;;;22.50;30.10;;;;;;4998285;28;20097;-61
2022/03/16 05:30:26;;;;;;;61.00;14.23;;;22.40;30.00;;;;;;4996139;28;20086;-61
2022/03/16 05:32:55;;;;;;;72.05;13.27;;;22.40;30.20;;;;;;5013323;28;20097;-61
2022/03/16 05:35:22;;;;;;;80.63;13.30;;;22.50;30.30;;;;;;4996110;28;21541;-62
2022/03/16 05:37:48;;;;;;;55.90;12.65;;;22.40;30.50;;;;;;4996100;28;20079;-61
2022/03/16 05:40:15;;;;;;;64.70;12.60;;;22.40;30.20;;;;;;4994408;28;20169;-62
2022/03/16 05:42:41;;;;;;;67.47;12.93;;;22.40;30.70;;;;;;5016069;28;20116;-63
2022/03/16 05:45:08;;;;;;;77.35;15.02;;;22.30;30.50;;;;;;5012634;28;20176;-60
2022/03/16 05:47:34;;;;;;;69.60;13.63;;;22.30;31.00;;;;;;5009648;28;20143;-62
2022/03/16 05:50:01;;;;;;;78.35;14.35;;;22.30;31.00;;;;;;5009297;28;20560;-61
2022/03/16 05:52:29;;;;;;;85.13;14.95;;;22.20;31.10;;;;;;5010687;28;20077;-60
2022/03/16 05:54:57;;;;;;;49.08;7.47;;;22.20;30.20;;;;;;5013523;28;20552;-61
2022/03/16 05:57:24;;;;;;;37.10;5.65;;;22.30;28.30;;;;;;4979928;28;20394;-62
2022/03/16 05:59:51;;;;;;;33.58;5.32;;;22.40;26.70;;;;;;4992292;28;20531;-61
2022/03/16 06:02:18;;;;;;;49.25;5.95;;;22.50;26.40;;;;;;4994427;28;20189;-63
2022/03/16 06:04:44;;;;;;;64.60;4.93;;;22.70;26.70;;;;;;5013490;28;20110;-64
2022/03/16 06:07:12;;;;;;;17.10;4.53;;;22.80;26.90;;;;;;4994410;28;20075;-61
2022/03/16 06:09:40;;;;;;;13.63;3.38;;;23.20;26.90;;;;;;4979326;28;20627;-62
2022/03/16 06:12:07;;;;;;;16.58;3.67;;;23.40;27.10;;;;;;4959490;28;20478;-61
2022/03/16 06:14:34;;;;;;;19.00;4.20;;;23.60;27.30;;;;;;4974068;28;20157;-61
2022/03/16 06:17:00;;;;;;;23.50;5.05;;;23.70;27.60;;;;;;4972564;28;20074;-62
2022/03/16 06:19:26;;;;;;;38.60;6.03;;;23.80;27.80;;;;;;4972863;28;20067;-60
2022/03/16 06:21:53;;;;;;;15.68;4.97;;;23.90;27.30;;;;;;4986521;28;20140;-60
2022/03/16 06:24:19;;;;;;;58.63;7.07;;;24.10;27.20;;;;;;4972891;28;20677;-60
2022/03/16 06:26:45;;;;;;;23.52;5.38;;;24.20;27.20;;;;;;4971165;28;20113;-60
2022/03/16 06:29:12;;;;;;;15.25;4.20;;;24.30;27.10;;;;;;4970875;28;20994;-60
2022/03/16 06:31:38;;;;;;;18.38;3.40;;;24.30;26.70;;;;;;4970499;28;20091;-60
2022/03/16 06:34:04;;;;;;;21.38;3.45;;;24.30;26.70;;;;;;4958326;28;20110;-59
2022/03/16 06:36:31;;;;;;;21.27;3.30;;;24.40;26.60;;;;;;4968117;28;20074;-60
2022/03/16 06:38:57;;;;;;;17.63;3.28;;;24.40;26.70;;;;;;4973180;28;20083;-58
2022/03/16 06:41:24;;;;;;;16.70;2.80;;;24.30;26.30;;;;;;4971927;28;20075;-62
2022/03/16 06:43:50;;;;;;;16.42;3.30;;;24.30;26.10;;;;;;4971437;28;20089;-61
2022/03/16 06:46:17;;;;;;;16.67;2.80;;;24.30;26.20;;;;;;4958315;28;20193;-60
2022/03/16 06:48:43;;;;;;;12.35;2.60;;;24.30;26.00;;;;;;4972025;28;20082;-59
2022/03/16 06:51:09;;;;;;;11.15;2.45;;;24.40;26.00;;;;;;4971772;28;20404;-59
2022/03/16 06:53:37;;;;;;;13.73;2.40;;;24.40;25.90;;;;;;4975702;28;20114;-61
2022/03/16 06:56:03;;;;;;;13.60;2.72;;;24.40;26.00;;;;;;4986562;28;20190;-60
2022/03/16 06:58:33;;;;;;;11.43;2.35;;;24.40;25.90;;;;;;4958905;28;20072;-60
2022/03/16 07:00:59;;;;;;;16.13;2.50;;;24.40;25.70;;;;;;4970982;28;20565;-60
2022/03/16 07:03:26;;;;;;;16.42;3.35;;;24.30;25.70;;;;;;4956566;28;20525;-60
2022/03/16 07:05:52;;;;;;;10.43;2.70;;;24.30;26.00;;;;;;4971308;28;20071;-60
2022/03/16 07:08:18;;;;;;;13.73;2.95;;;24.20;26.20;;;;;;4957225;28;20075;-60
2022/03/16 07:10:45;;;;;;;14.30;2.53;;;24.20;26.60;;;;;;4999838;28;20118;-59
2022/03/16 07:13:13;;;;;;;8.90;2.40;;;24.20;26.90;;;;;;4970446;28;20103;-60
2022/03/16 07:15:44;;;;;;;10.82;2.65;;;24.10;27.10;;;;;;4969722;28;20086;-57
2022/03/16 07:18:11;;;;;;;9.52;2.60;;;24.00;27.20;;;;;;4972332;28;20748;-60
2022/03/16 07:20:38;;;;;;;11.50;3.15;;;24.00;27.40;;;;;;4986044;28;20088;-59
2022/03/16 07:23:05;;;;;;;17.33;3.08;;;23.90;27.40;;;;;;4959665;28;20160;-60
2022/03/16 07:25:31;;;;;;;17.42;3.15;;;23.80;27.40;;;;;;4970132;28;20079;-61
2022/03/16 07:27:58;;;;;;;13.68;3.30;;;23.80;27.40;;;;;;4970708;28;20079;-62
2022/03/16 07:30:25;;;;;;;12.13;2.90;;;23.80;27.50;;;;;;4958651;28;20551;-60
2022/03/16 07:32:51;;;;;;;9.45;2.88;;;23.70;27.60;;;;;;4969232;28;20093;-61
2022/03/16 07:35:18;;;;;;;15.80;2.58;;;23.60;27.60;;;;;;4969850;28;20154;-60
2022/03/16 07:37:44;;;;;;;9.32;2.38;;;23.50;27.70;;;;;;4970921;28;20599;-60
2022/03/16 07:40:11;;;;;;;11.13;2.25;;;23.50;27.70;;;;;;4985711;28;20777;-62
2022/03/16 07:42:38;;;;;;;9.77;2.20;;;23.40;27.60;;;;;;4975505;28;20071;-61
2022/03/16 07:45:05;;;;;;;8.32;2.25;;;23.40;27.90;;;;;;4978287;28;20076;-62
2022/03/16 07:47:31;;;;;;;11.07;2.25;;;23.20;28.00;;;;;;4990545;28;20095;-62
2022/03/16 07:49:58;;;;;;;9.00;2.10;;;23.20;27.90;;;;;;4974116;28;20501;-60
2022/03/16 07:52:24;;;;;;;6.63;2.08;;;23.10;27.60;;;;;;4988693;28;20071;-62
2022/03/16 07:54:51;;;;;;;6.85;2.17;;;23.10;27.50;;;;;;4990679;28;20095;-60
2022/03/16 07:57:17;;;;;;;9.68;2.40;;;23.00;27.40;;;;;;4974454;28;20467;-60
2022/03/16 07:59:44;;;;;;;12.20;3.40;;;23.00;27.80;;;;;;4973031;28;20154;-60
2022/03/16 08:02:16;;;;;;;7.82;4.43;;;23.00;26.90;;;;;;4988790;28;20099;-60
2022/03/16 08:04:42;;;;;;;12.25;4.10;;;23.00;27.00;;;;;;4974463;28;20223;-61
2022/03/16 08:07:12;;;;;;;10.07;3.80;;;23.00;27.10;;;;;;4960909;28;20489;-61
2022/03/16 08:09:38;;;;;;;11.45;3.45;;;22.80;27.30;;;;;;4973248;28;20086;-59
2022/03/16 08:12:06;;;;;;;8.82;3.28;;;22.80;27.70;;;;;;5008655;28;20107;-60
2022/03/16 08:14:32;;;;;;;12.75;4.13;;;22.70;27.80;;;;;;4994107;28;20465;-60
2022/03/16 08:16:59;;;;;;;12.75;4.97;;;22.70;27.90;;;;;;4993092;28;20091;-60
2022/03/16 08:19:25;;;;;;;12.63;4.45;;;22.70;27.80;;;;;;4981161;28;20419;-59
2022/03/16 08:21:51;;;;;;;11.60;4.63;;;22.70;27.70;;;;;;4993376;28;20442;-61
2022/03/16 08:24:18;;;;;;;13.43;4.20;;;22.60;27.80;;;;;;4992613;28;20110;-59
2022/03/16 08:26:44;;;;;;;13.60;4.53;;;22.70;28.30;;;;;;4992595;28;20116;-60
2022/03/16 08:29:10;;;;;;;9.93;4.25;;;22.60;28.20;;;;;;4993541;28;20083;-60
2022/03/16 08:31:37;;;;;;;14.80;4.25;;;22.60;28.30;;;;;;4991767;28;20090;-59
2022/03/16 08:34:03;;;;;;;9.55;3.85;;;22.50;28.20;;;;;;4980550;28;20141;-59
2022/03/16 08:36:30;;;;;;;10.27;3.50;;;22.50;28.30;;;;;;4993668;28;20070;-60
2022/03/16 08:38:56;;;;;;;9.40;3.45;;;22.50;28.40;;;;;;4995414;28;20074;-59
2022/03/16 08:41:23;;;;;;;12.30;2.70;;;22.40;28.10;;;;;;4993949;28;20071;-59
2022/03/16 08:43:49;;;;;;;13.75;2.55;;;22.40;28.20;;;;;;4992788;28;20201;-60
2022/03/16 08:46:15;;;;;;;11.00;2.47;;;22.30;28.10;;;;;;4991575;28;20085;-60
2022/03/16 08:48:42;;;;;;;12.20;2.10;;;22.20;28.50;;;;;;4995554;28;20082;-60
2022/03/16 08:51:10;;;;;;;14.35;2.83;;;22.10;28.50;;;;;;4992052;28;20094;-62
2022/03/16 08:53:37;;;;;;;9.32;2.38;;;22.00;28.40;;;;;;4990120;28;20090;-60
2022/03/16 08:56:04;;;;;;;9.60;1.98;;;22.00;28.60;;;;;;4991710;28;20245;-58
2022/03/16 08:58:30;;;;;;;10.63;2.08;;;22.00;28.50;;;;;;4993287;28;20063;-60
2022/03/16 09:00:57;;;;;;;11.77;1.67;;;21.90;28.20;;;;;;4992156;28;20094;-60
2022/03/16 09:03:23;;;;;;;10.38;1.80;;;22.00;28.30;;;;;;4991968;28;20079;-61
2022/03/16 09:05:50;;;;;;;4.50;2.20;;;21.90;28.50;;;;;;5006373;28;20075;-59
2022/03/16 09:08:18;;;;;;;4.20;1.10;;;22.00;27.90;;;;;;4993148;28;20086;-59
2022/03/16 09:10:44;;;;;;;7.45;1.15;;;22.20;27.50;;;;;;4984177;28;20567;-61
2022/03/16 09:13:11;;;;;;;4.72;1.00;;;22.40;27.30;;;;;;4972543;28;20074;-59
2022/03/16 09:15:37;;;;;;;6.95;1.58;;;22.50;27.20;;;;;;4970235;28;21667;-60
2022/03/16 09:18:04;;;;;;;7.32;1.55;;;22.60;27.20;;;;;;4971090;28;20072;-60
2022/03/16 09:20:30;;;;;;;4.60;1.13;;;22.60;27.70;;;;;;4968601;28;20162;-61
2022/03/16 09:23:00;;;;;;;7.57;1.10;;;22.50;27.80;;;;;;4972216;28;20078;-60
2022/03/16 09:25:26;;;;;;;6.10;0.98;;;22.50;27.80;;;;;;4985874;28;20087;-60
2022/03/16 09:27:52;;;;;;;7.75;1.15;;;22.40;28.30;;;;;;4985509;28;20099;-59
2022/03/16 09:30:19;;;;;;;8.20;1.13;;;22.30;28.30;;;;;;4971024;28;20197;-59
2022/03/16 09:32:46;;;;;;;4.28;1.05;;;22.20;28.50;;;;;;4973913;28;20063;-61
2022/03/16 09:35:12;;;;;;;4.97;1.13;;;22.10;29.00;;;;;;4986573;28;20182;-60
2022/03/16 09:37:40;;;;;;;9.80;1.45;;;22.00;29.10;;;;;;4973244;28;20210;-60
2022/03/16 09:40:07;;;;;;;11.85;1.58;;;21.90;29.30;;;;;;4972650;28;20160;-61
2022/03/16 09:42:34;;;;;;;9.05;1.75;;;21.90;29.20;;;;;;4970629;28;20103;-60
2022/03/16 09:45:02;;;;;;;6.38;1.50;;;21.80;29.10;;;;;;4972378;28;21670;-59
2022/03/16 09:47:33;;;;;;;5.75;1.58;;;21.70;29.50;;;;;;4956970;28;20075;-59
2022/03/16 09:50:00;;;;;;;6.93;1.55;;;21.60;29.80;;;;;;4971315;28;20094;-59
2022/03/16 09:52:26;;;;;;;3.85;1.52;;;21.50;29.20;;;;;;4970122;28;20157;-58
2022/03/16 09:54:54;;;;;;;4.78;1.52;;;21.50;29.10;;;;;;4973698;28;20090;-61
2022/03/16 09:57:21;;;;;;;4.95;1.50;;;21.50;29.10;;;;;;4974007;28;20150;-59
2022/03/16 09:59:48;;;;;;;4.97;1.52;;;21.50;29.40;;;;;;4970906;28;20075;-59
2022/03/16 10:02:17;;;;;;;3.55;1.30;;;21.40;29.20;;;;;;4984397;28;20091;-59
2022/03/16 10:04:47;;;;;;;4.15;1.23;;;21.50;29.20;;;;;;4968470;28;20091;-60
2022/03/16 10:07:14;;;;;;;4.25;1.13;;;21.50;29.20;;;;;;4973036;28;20450;-59
2022/03/16 10:15:18;;;;;;;5.55;1.30;;;21.60;29.30;;;;;;4972277;28;20114;-60
2022/03/16 10:17:49;;;;;;;5.38;1.33;;;21.50;29.40;;;;;;4969743;28;20119;-60
2022/03/16 10:20:26;;;;;;;5.93;1.52;;;21.40;29.90;;;;;;4987359;28;20071;-60
2022/03/16 10:23:06;;;;;;;6.68;1.20;;;21.30;30.40;;;;;;4959334;28;20095;-60
2022/03/16 10:25:53;;;;;;;3.40;1.17;;;21.20;31.40;;;;;;4970098;28;20167;-60
2022/03/16 10:28:24;;;;;;;10.90;1.67;;;21.10;31.50;;;;;;4974138;28;20067;-59
2022/03/16 10:31:08;;;;;;;5.97;1.08;;;21.00;31.40;;;;;;4971702;28;20136;-59
2022/03/16 10:33:44;;;;;;;3.90;1.20;;;20.80;31.30;;;;;;4971818;28;20079;-60
2022/03/16 10:36:13;;;;;;;7.68;1.40;;;20.70;31.30;;;;;;4957720;28;20082;-61
2022/03/16 10:38:45;;;;;;;9.77;1.40;;;20.60;31.70;;;;;;4970451;28;20539;-61
2022/03/16 10:47:17;;;;;;;7.40;1.40;;;20.50;32.20;;;;;;4971406;28;20106;-60
2022/03/16 10:49:45;;;;;;;6.43;1.55;;;20.40;32.40;;;;;;4986491;28;20558;-59
2022/03/16 10:52:19;;;;;;;5.97;1.08;;;20.40;32.20;;;;;;4958266;28;20160;-61
2022/03/16 10:54:48;;;;;;;8.80;1.30;;;20.30;32.50;;;;;;4973209;28;20067;-59
2022/03/16 10:57:15;;;;;;;5.38;1.63;;;20.30;33.00;;;;;;4968826;28;20079;-60
2022/03/16 10:59:48;;;;;;;8.48;2.17;;;20.20;33.20;;;;;;4959833;28;20071;-59
2022/03/16 11:02:18;;;;;;;3.95;1.75;;;20.10;33.50;;;;;;4975360;28;20625;-60
2022/03/16 11:04:47;;;;;;;5.15;2.15;;;20.10;33.20;;;;;;4970297;28;20112;-61
2022/03/16 11:07:14;;;;;;;6.28;2.15;;;20.00;33.10;;;;;;4958422;28;20141;-61
2022/03/16 11:09:41;;;;;;;4.38;1.90;;;19.90;33.60;;;;;;4970380;28;20083;-60
2022/03/16 11:14:53;;;;;;;9.82;2.10;;;19.80;34.30;;;;;;4971239;28;20149;-58
2022/03/16 11:17:22;;;;;;;11.85;2.08;;;19.90;34.90;;;;;;4958768;28;20078;-62
2022/03/16 11:19:52;;;;;;;6.05;1.75;;;19.80;34.90;;;;;;5007374;28;20123;-60
2022/03/16 11:22:30;;;;;;;10.60;2.05;;;19.70;35.50;;;;;;4961213;28;20082;-60
2022/03/16 11:25:23;;;;;;;6.90;1.58;;;19.70;35.40;;;;;;4978090;28;20754;-60
2022/03/16 11:27:52;;;;;;;3.90;1.20;;;19.70;34.10;;;;;;4971379;28;20546;-62
2022/03/16 11:30:33;;;;;;;6.65;1.20;;;20.00;33.20;;;;;;4973730;28;20098;-60
2022/03/16 11:33:07;;;;;;;10.40;1.25;;;20.10;32.70;;;;;;4975064;28;20083;-61
2022/03/16 11:35:44;;;;;;;16.88;1.77;;;20.60;32.00;;;;;;4962087;28;20083;-60
2022/03/16 11:38:15;;;;;;;7.13;1.35;;;21.00;31.40;;;;;;4946728;28;20105;-60
2022/03/16 11:40:45;;;;;;;24.52;1.80;;;21.30;30.90;;;;;;4972209;28;20099;-60
2022/03/16 11:43:18;;;;;;;8.85;1.67;;;21.50;30.60;;;;;;4976490;28;20547;-62
2022/03/16 11:45:50;;;;;;;10.82;1.60;;;21.80;30.20;;;;;;4988042;28;20107;-62
2022/03/16 11:48:32;;;;;;;8.45;1.60;;;22.00;30.00;;;;;;4987564;28;20071;-60
2022/03/16 11:51:14;;;;;;;4.80;0.95;;;22.10;29.90;;;;;;4988020;28;20091;-60
2022/03/16 11:54:05;;;;;;;10.75;1.63;;;22.30;29.80;;;;;;4990263;28;20099;-62
2022/03/16 11:56:46;;;;;;;3.92;1.27;;;22.40;29.60;;;;;;4966117;28;20527;-61
2022/03/16 11:59:33;;;;;;;8.63;1.50;;;22.50;29.60;;;;;;4988437;28;20443;-60
2022/03/16 12:02:24;;;;;;;6.28;1.27;;;22.50;29.60;;;;;;4970732;28;20095;-59
2022/03/16 12:04:56;;;;;;;3.88;1.23;;;22.50;29.60;;;;;;4971924;28;20147;-62
2022/03/16 12:07:25;;;;;;;11.88;1.40;;;22.50;29.70;;;;;;4976103;28;20094;-60
2022/03/16 12:09:55;;;;;;;8.93;1.70;;;22.50;29.70;;;;;;4974031;28;20554;-59
2022/03/16 12:12:58;;;;;;;5.32;1.35;;;22.40;29.90;;;;;;5003831;28;20246;-60
2022/03/16 12:15:33;;;;;;;5.90;1.23;;;22.30;30.00;;;;;;4978562;28;20118;-60
2022/03/16 12:17:59;;;;;;;6.22;1.38;;;22.20;30.00;;;;;;5003722;28;20106;-61
2022/03/16 12:20:28;;;;;;;10.75;1.50;;;22.10;30.80;;;;;;4972103;28;20088;-60
2022/03/16 12:22:59;;;;;;;7.88;1.70;;;22.10;30.50;;;;;;4961792;28;20075;-60
2022/03/16 12:25:29;;;;;;;3.95;1.80;;;22.10;30.50;;;;;;4972419;28;20106;-60
2022/03/16 12:31:19;;;;;;;21.27;2.63;;;22.10;30.70;;;;;;4973864;28;20101;-60
2022/03/16 12:33:56;;;;;;;6.00;1.92;;;22.00;30.60;;;;;;4962716;28;20534;-60
2022/03/16 12:36:26;;;;;;;12.15;1.70;;;22.00;30.80;;;;;;5003841;28;20086;-61
2022/03/16 12:38:56;;;;;;;9.68;2.35;;;21.90;30.80;;;;;;4961596;28;20079;-60
2022/03/16 12:44:14;;;;;;;13.45;1.70;;;21.90;30.90;;;;;;4978276;28;20485;-61
2022/03/16 12:46:56;;;;;;;4.68;1.45;;;22.10;30.80;;;;;;4973420;28;20082;-58
2022/03/16 12:49:24;;;;;;;7.70;1.65;;;22.20;30.60;;;;;;4972169;28;20496;-59
2022/03/16 12:52:01;;;;;;;10.95;1.60;;;22.30;30.50;;;;;;4971996;28;20145;-62
2022/03/16 12:54:29;;;;;;;11.25;1.55;;;22.40;30.40;;;;;;4973526;28;20075;-61
2022/03/16 12:57:01;;;;;;;8.50;1.50;;;22.50;30.30;;;;;;4961587;28;21507;-60
2022/03/16 12:59:36;;;;;;;9.38;1.67;;;22.60;30.20;;;;;;4956613;28;20127;-58
2022/03/16 13:02:12;;;;;;;4.72;1.50;;;22.60;30.10;;;;;;4973570;28;20218;-61